createdAt,value
2023-01-17T00:01:09.579Z,94.14
2023-01-17T00:04:32.332Z,94.44
2023-01-17T00:08:01.048Z,94.55
2023-01-17T00:11:04.313Z,94.44
2023-01-17T00:14:07.454Z,94.34
2023-01-17T00:17:10.622Z,94.23
2023-01-17T00:20:32.834Z,94.18
2023-01-17T00:23:54.914Z,94.08
2023-01-17T00:27:12.525Z,93.94
2023-01-17T00:30:15.838Z,93.70
2023-01-17T00:33:18.919Z,93.61
2023-01-17T00:36:21.969Z,93.50
2023-01-17T00:39:24.455Z,92.65
2023-01-17T00:42:27.993Z,92.96
2023-01-17T00:45:49.257Z,93.06
2023-01-17T00:49:11.441Z,93.00
2023-01-17T00:52:32.831Z,92.93
2023-01-17T00:55:54.789Z,92.98
2023-01-17T00:59:15.770Z,92.71
2023-01-17T01:02:38.064Z,92.29
2023-01-17T01:05:59.702Z,92.44
2023-01-17T01:09:21.168Z,92.27
2023-01-17T01:12:42.524Z,92.06
2023-01-17T01:16:03.835Z,91.79
2023-01-17T01:19:25.244Z,90.26
2023-01-17T01:22:47.385Z,91.44
2023-01-17T01:26:08.953Z,91.87
2023-01-17T01:29:30.939Z,92.26
2023-01-17T01:32:53.487Z,91.83
2023-01-17T01:35:56.609Z,92.22
2023-01-17T01:38:59.281Z,92.16
2023-01-17T01:42:02.440Z,92.09
2023-01-17T01:45:18.167Z,92.29
2023-01-17T01:48:34.384Z,92.81
2023-01-17T01:51:41.508Z,92.39
2023-01-17T01:54:57.043Z,93.71
2023-01-17T01:58:04.490Z,94.12
2023-01-17T02:01:09.197Z,94.92
2023-01-17T02:04:13.014Z,95.00
2023-01-17T02:07:24.031Z,94.95
2023-01-17T02:10:26.982Z,94.69
2023-01-17T02:13:31.456Z,94.62
2023-01-17T02:17:12.914Z,94.44
2023-01-17T02:20:46.298Z,94.31
2023-01-17T02:24:26.153Z,94.31
2023-01-17T02:27:35.154Z,94.24
2023-01-17T02:30:46.080Z,93.32
2023-01-17T02:33:51.521Z,94.37
2023-01-17T02:37:04.827Z,94.70
2023-01-17T02:40:16.751Z,93.88
2023-01-17T02:43:23.509Z,94.57
2023-01-17T02:46:26.358Z,94.07
2023-01-17T02:49:31.874Z,93.48
2023-01-17T02:52:55.722Z,94.19
2023-01-17T02:56:04.311Z,93.87
2023-01-17T02:59:38.548Z,93.15
2023-01-17T03:02:57.646Z,93.42
2023-01-17T03:06:12.416Z,93.86
2023-01-17T03:09:17.324Z,94.06
2023-01-17T03:12:21.288Z,94.08
2023-01-17T03:15:24.111Z,94.00
2023-01-17T03:18:27.238Z,93.85
2023-01-17T03:21:30.029Z,93.43
2023-01-17T03:24:32.952Z,93.51
2023-01-17T03:27:35.812Z,93.76
2023-01-17T03:30:38.751Z,93.92
2023-01-17T03:33:41.609Z,93.76
2023-01-17T03:36:44.417Z,93.80
2023-01-17T03:39:47.194Z,93.38
2023-01-17T03:42:50.077Z,93.51
2023-01-17T03:45:54.568Z,93.45
2023-01-17T03:48:57.414Z,93.45
2023-01-17T03:52:00.223Z,93.14
2023-01-17T03:55:03.001Z,93.07
2023-01-17T03:58:06.030Z,92.83
2023-01-17T04:01:09.248Z,92.74
2023-01-17T04:04:12.168Z,92.67
2023-01-17T04:07:15.027Z,92.46
2023-01-17T04:10:17.837Z,93.14
2023-01-17T04:13:20.902Z,93.39
2023-01-17T04:16:29.314Z,93.33
2023-01-17T04:19:35.689Z,93.28
2023-01-17T04:22:38.469Z,93.18
2023-01-17T04:25:41.451Z,93.18
2023-01-17T04:28:44.268Z,93.07
2023-01-17T04:31:48.656Z,92.42
2023-01-17T04:34:51.559Z,92.38
2023-01-17T04:37:54.337Z,92.63
2023-01-17T04:40:57.165Z,92.46
2023-01-17T04:44:00.012Z,91.34
2023-01-17T04:47:03.397Z,90.70
2023-01-17T04:50:06.314Z,90.67
2023-01-17T04:53:09.090Z,89.87
2023-01-17T04:56:11.922Z,91.00
2023-01-17T04:59:14.853Z,91.14
2023-01-17T05:02:17.680Z,91.00
2023-01-17T05:05:20.560Z,90.82
2023-01-17T05:08:23.553Z,91.95
2023-01-17T05:11:26.564Z,91.36
2023-01-17T05:14:29.456Z,92.21
2023-01-17T05:17:32.232Z,91.75
2023-01-17T05:20:36.542Z,90.51
2023-01-17T05:23:40.593Z,90.67
2023-01-17T05:26:43.407Z,90.68
2023-01-17T05:29:46.359Z,91.05
2023-01-17T05:32:54.138Z,91.60
2023-01-17T05:35:57.269Z,92.20
2023-01-17T05:39:00.033Z,91.93
2023-01-17T05:42:02.856Z,92.40
2023-01-17T05:45:06.345Z,91.18
2023-01-17T05:48:09.207Z,91.16
2023-01-17T05:51:12.047Z,90.88
2023-01-17T05:54:14.877Z,91.58
2023-01-17T05:57:17.869Z,91.94
2023-01-17T06:00:21.477Z,92.02
2023-01-17T06:03:24.684Z,92.30
2023-01-17T06:06:27.152Z,92.64
2023-01-17T06:09:30.210Z,92.19
2023-01-17T06:12:32.734Z,92.26
2023-01-17T06:15:37.535Z,92.00
2023-01-17T06:18:40.156Z,92.44
2023-01-17T06:21:43.246Z,92.52
2023-01-17T06:24:45.859Z,91.75
2023-01-17T06:27:49.034Z,92.22
2023-01-17T06:30:51.569Z,92.15
2023-01-17T06:33:55.398Z,92.71
2023-01-17T06:36:58.042Z,93.55
2023-01-17T06:40:01.341Z,94.74
2023-01-17T06:43:05.260Z,95.08
2023-01-17T06:46:08.474Z,95.65
2023-01-17T06:49:11.016Z,94.76
2023-01-17T06:52:14.049Z,95.21
2023-01-17T06:55:16.657Z,96.05
2023-01-17T06:58:19.739Z,95.56
2023-01-17T07:01:22.435Z,96.18
2023-01-17T07:04:25.639Z,95.65
2023-01-17T07:07:28.199Z,96.17
2023-01-17T07:10:31.380Z,94.82
2023-01-17T07:13:36.542Z,94.71
2023-01-17T07:16:39.673Z,93.97
2023-01-17T07:19:43.055Z,92.54
2023-01-17T07:22:46.157Z,92.25
2023-01-17T07:25:53.525Z,91.71
2023-01-17T07:28:56.600Z,91.15
2023-01-17T07:31:59.094Z,92.25
2023-01-17T07:35:02.218Z,91.68
2023-01-17T07:38:05.977Z,91.47
2023-01-17T07:41:10.998Z,91.41
2023-01-17T07:44:14.380Z,91.61
2023-01-17T07:47:17.587Z,92.00
2023-01-17T07:50:20.101Z,87.93
2023-01-17T07:53:24.994Z,87.57
2023-01-17T07:56:27.517Z,88.89
2023-01-17T07:59:30.784Z,87.92
2023-01-17T08:02:33.436Z,87.52
2023-01-17T08:05:36.573Z,88.56
2023-01-17T08:08:39.104Z,86.52
2023-01-17T08:11:42.312Z,86.28
2023-01-17T08:14:45.030Z,86.75
2023-01-17T08:17:53.205Z,88.09
2023-01-17T08:20:56.719Z,81.72
2023-01-17T08:23:59.928Z,80.11
2023-01-17T08:27:02.473Z,76.37
2023-01-17T08:30:07.660Z,78.69
2023-01-17T08:33:10.196Z,78.43
2023-01-17T08:36:13.464Z,78.54
2023-01-17T08:39:16.157Z,76.81
2023-01-17T08:42:19.696Z,75.44
2023-01-17T08:45:22.393Z,69.14
2023-01-17T08:48:25.499Z,65.26
2023-01-17T08:51:28.265Z,62.29
2023-01-17T08:54:31.312Z,54.05
2023-01-17T08:57:33.993Z,48.76
2023-01-17T09:00:38.482Z,46.82
2023-01-17T09:03:41.948Z,43.61
2023-01-17T09:06:47.364Z,37.99
2023-01-17T09:09:50.159Z,35.45
2023-01-17T09:12:53.236Z,37.09
2023-01-17T09:15:57.172Z,34.58
2023-01-17T09:19:00.864Z,33.58
2023-01-17T09:22:06.570Z,31.72
2023-01-17T09:25:09.816Z,31.98
2023-01-17T09:31:17.310Z,30.34
2023-01-17T09:34:20.108Z,28.49
2023-01-17T09:37:23.365Z,26.60
2023-01-17T09:40:26.106Z,27.83
2023-01-17T09:43:47.031Z,24.62
2023-01-17T09:46:51.896Z,24.07
2023-01-17T09:50:00.903Z,26.04
2023-01-17T09:53:16.246Z,26.48
2023-01-17T09:56:31.254Z,26.37
2023-01-17T09:59:45.745Z,25.92
2023-01-17T10:03:05.049Z,26.19
2023-01-17T10:06:17.037Z,26.82
2023-01-17T10:09:35.294Z,28.45
2023-01-17T10:13:06.634Z,29.81
2023-01-17T10:16:25.714Z,29.82
2023-01-17T10:20:04.370Z,29.71
2023-01-17T10:23:18.089Z,25.68
2023-01-17T10:26:24.992Z,23.89
2023-01-17T10:29:33.264Z,23.86
2023-01-17T10:32:45.091Z,22.62
2023-01-17T10:35:58.692Z,22.45
2023-01-17T10:39:11.819Z,21.91
2023-01-17T10:42:32.121Z,21.49
2023-01-17T10:45:41.418Z,19.35
2023-01-17T10:48:47.615Z,19.36
2023-01-17T10:52:21.576Z,20.93
2023-01-17T10:55:44.653Z,21.67
2023-01-17T10:58:57.165Z,20.56
2023-01-17T11:02:07.532Z,20.01
2023-01-17T11:05:26.609Z,19.35
2023-01-17T11:08:50.673Z,19.43
2023-01-17T11:11:53.663Z,18.97
2023-01-17T11:15:08.564Z,21.76
2023-01-17T11:18:17.374Z,23.80
2023-01-17T11:21:25.559Z,25.19
2023-01-17T11:24:34.763Z,29.17
2023-01-17T11:27:40.022Z,29.90
2023-01-17T11:30:55.674Z,29.64
2023-01-17T11:34:17.004Z,31.10
2023-01-17T11:37:20.833Z,31.00
2023-01-17T11:40:26.512Z,34.17
2023-01-17T11:43:30.443Z,35.27
2023-01-17T11:46:33.560Z,36.19
2023-01-17T11:49:36.509Z,37.82
2023-01-17T11:52:39.220Z,37.20
2023-01-17T11:56:12.568Z,36.41
2023-01-17T11:59:28.769Z,37.91
2023-01-17T12:02:43.422Z,37.17
2023-01-17T12:05:56.611Z,38.28
2023-01-17T12:09:07.878Z,37.90
2023-01-17T12:12:54.016Z,36.79
2023-01-17T12:16:27.334Z,33.44
2023-01-17T12:19:54.242Z,34.84
2023-01-17T12:23:14.054Z,35.38
2023-01-17T12:26:29.087Z,32.52
2023-01-17T12:29:50.404Z,33.04
2023-01-17T12:33:08.893Z,33.02
2023-01-17T12:36:17.747Z,34.42
2023-01-17T12:39:27.354Z,36.08
2023-01-17T12:42:40.687Z,35.96
2023-01-17T12:45:47.449Z,35.89
2023-01-17T12:48:58.593Z,37.24
2023-01-17T12:52:21.556Z,38.84
2023-01-17T12:55:37.815Z,40.41
2023-01-17T12:58:45.175Z,42.12
2023-01-17T13:01:57.619Z,43.63
2023-01-17T13:05:26.095Z,45.07
2023-01-17T13:08:46.585Z,45.94
2023-01-17T13:11:56.152Z,47.76
2023-01-17T13:15:00.146Z,49.45
2023-01-17T13:18:15.675Z,50.19
2023-01-17T13:21:31.524Z,51.64
2023-01-17T13:24:55.713Z,51.32
2023-01-17T13:28:16.532Z,52.98
2023-01-17T13:31:19.574Z,52.68
2023-01-17T13:35:01.639Z,53.02
2023-01-17T13:38:30.451Z,53.67
2023-01-17T13:41:44.880Z,55.27
2023-01-17T13:44:48.259Z,56.68
2023-01-17T13:47:50.854Z,58.01
2023-01-17T13:50:56.480Z,58.45
2023-01-17T13:53:59.558Z,59.15
2023-01-17T13:57:32.821Z,60.10
2023-01-17T14:00:55.662Z,59.56
2023-01-17T14:03:58.868Z,60.28
2023-01-17T14:07:20.256Z,60.71
2023-01-17T14:10:30.364Z,61.14
2023-01-17T14:13:39.732Z,61.90
2023-01-17T14:16:44.880Z,62.55
2023-01-17T14:19:54.547Z,62.40
2023-01-17T14:23:02.378Z,62.78
2023-01-17T14:26:29.347Z,63.32
2023-01-17T14:29:59.174Z,62.98
2023-01-17T14:33:01.826Z,62.79
2023-01-17T14:36:08.109Z,62.13
2023-01-17T14:39:23.259Z,62.73
2023-01-17T14:42:29.956Z,63.48
2023-01-17T14:45:35.789Z,64.02
2023-01-17T14:48:41.033Z,64.48
2023-01-17T14:51:43.645Z,64.76
2023-01-17T14:54:52.097Z,64.63
2023-01-17T14:57:58.409Z,64.37
2023-01-17T15:01:05.314Z,64.68
2023-01-17T15:04:23.479Z,64.71
2023-01-17T15:07:27.380Z,65.00
2023-01-17T15:10:31.669Z,64.45
2023-01-17T15:13:45.044Z,64.98
2023-01-17T15:16:48.058Z,64.52
2023-01-17T15:19:57.223Z,65.02
2023-01-17T15:23:00.150Z,65.17
2023-01-17T15:26:06.339Z,64.98
2023-01-17T15:29:31.692Z,65.15
2023-01-17T15:32:34.908Z,65.13
2023-01-17T15:35:37.475Z,65.54
2023-01-17T15:38:50.170Z,65.87
2023-01-17T15:41:54.914Z,66.40
2023-01-17T15:45:05.870Z,66.22
2023-01-17T15:48:44.445Z,66.52
2023-01-17T15:51:54.803Z,66.03
2023-01-17T15:55:12.919Z,65.75
2023-01-17T15:58:25.177Z,66.07
2023-01-17T16:01:28.800Z,66.22
2023-01-17T16:04:37.301Z,65.75
2023-01-17T16:07:42.602Z,66.20
2023-01-17T16:10:45.713Z,66.24
2023-01-17T16:13:48.582Z,66.79
2023-01-17T16:16:52.639Z,66.00
2023-01-17T16:19:55.310Z,66.35
2023-01-17T16:23:00.390Z,65.38
2023-01-17T16:26:03.167Z,65.65
2023-01-17T16:29:07.671Z,65.43
2023-01-17T16:32:10.366Z,65.65
2023-01-17T16:35:21.571Z,66.64
2023-01-17T16:38:24.291Z,67.16
2023-01-17T16:41:27.434Z,67.76
2023-01-17T16:44:30.819Z,68.00
2023-01-17T16:47:33.894Z,68.36
2023-01-17T16:50:41.080Z,68.72
2023-01-17T16:53:44.271Z,69.06
2023-01-17T16:56:46.913Z,69.46
2023-01-17T16:59:51.136Z,70.11
2023-01-17T17:02:54.087Z,69.42
2023-01-17T17:05:58.294Z,70.67
2023-01-17T17:09:00.746Z,71.78
2023-01-17T17:12:05.124Z,73.71
2023-01-17T17:15:08.657Z,73.92
2023-01-17T17:18:16.750Z,74.41
2023-01-17T17:21:19.376Z,75.30
2023-01-17T17:24:22.469Z,76.16
2023-01-17T17:27:27.702Z,76.73
2023-01-17T17:30:31.601Z,77.41
2023-01-17T17:33:35.298Z,78.33
2023-01-17T17:36:39.107Z,78.75
2023-01-17T17:39:42.491Z,79.12
2023-01-17T17:42:45.575Z,80.03
2023-01-17T17:45:49.001Z,80.50
2023-01-17T17:48:52.128Z,81.16
2023-01-17T17:51:54.646Z,81.29
2023-01-17T17:54:57.760Z,80.77
2023-01-17T17:58:02.122Z,81.78
2023-01-17T18:01:06.460Z,82.53
2023-01-17T18:04:09.803Z,82.91
2023-01-17T18:07:12.680Z,83.20
2023-01-17T18:10:15.896Z,83.53
2023-01-17T18:13:18.718Z,83.95
2023-01-17T18:16:31.809Z,83.57
2023-01-17T18:19:34.634Z,84.02
2023-01-17T18:22:37.569Z,84.26
2023-01-17T18:25:43.200Z,84.33
2023-01-17T18:28:46.614Z,83.83
2023-01-17T18:31:50.513Z,84.55
2023-01-17T18:34:53.246Z,85.35
2023-01-17T18:37:57.636Z,85.14
2023-01-17T18:41:03.258Z,85.64
2023-01-17T18:44:07.918Z,85.99
2023-01-17T18:47:13.027Z,86.42
2023-01-17T18:50:16.261Z,86.59
2023-01-17T18:53:19.510Z,86.18
2023-01-17T18:56:22.797Z,87.09
2023-01-17T18:59:28.671Z,86.89
2023-01-17T19:02:33.193Z,87.34
2023-01-17T19:05:36.505Z,87.28
2023-01-17T19:08:43.529Z,87.67
2023-01-17T19:11:50.136Z,87.75
2023-01-17T19:14:53.657Z,88.28
2023-01-17T19:17:57.469Z,87.83
2023-01-17T19:21:11.458Z,88.45
2023-01-17T19:24:17.565Z,88.74
2023-01-17T19:27:21.161Z,88.76
2023-01-17T19:30:24.462Z,89.23
2023-01-17T19:33:27.772Z,89.94
2023-01-17T19:36:36.242Z,90.05
2023-01-17T19:39:39.716Z,89.49
2023-01-17T19:42:43.009Z,89.54
2023-01-17T19:45:58.826Z,89.61
2023-01-17T19:49:02.821Z,89.65
2023-01-17T19:52:08.747Z,89.43
2023-01-17T19:55:11.904Z,89.58
2023-01-17T19:58:15.321Z,89.33
2023-01-17T20:01:22.100Z,88.85
2023-01-17T20:04:25.913Z,89.05
2023-01-17T20:07:29.750Z,88.50
2023-01-17T20:10:33.725Z,88.79
2023-01-17T20:13:37.264Z,88.61
2023-01-17T20:16:41.151Z,89.00
2023-01-17T20:19:45.853Z,89.31
2023-01-17T20:22:49.700Z,89.21
2023-01-17T20:26:00.385Z,88.75
2023-01-17T20:29:07.447Z,89.56
2023-01-17T20:32:10.329Z,89.82
2023-01-17T20:35:14.092Z,89.65
2023-01-17T20:38:17.070Z,90.27
2023-01-17T20:41:23.143Z,90.66
2023-01-17T20:44:26.229Z,89.54
2023-01-17T20:47:29.970Z,88.51
2023-01-17T20:50:36.807Z,88.08
2023-01-17T20:53:41.710Z,87.97
2023-01-17T20:56:47.433Z,87.79
2023-01-17T20:59:51.293Z,88.34
2023-01-17T21:02:54.184Z,87.98
2023-01-17T21:06:11.642Z,87.53
2023-01-17T21:09:15.400Z,87.44
2023-01-17T21:12:21.483Z,86.84
2023-01-17T21:15:24.400Z,87.90
2023-01-17T21:18:28.272Z,87.58
2023-01-17T21:21:30.863Z,87.77
2023-01-17T21:24:34.524Z,87.03
2023-01-17T21:27:37.256Z,87.53
2023-01-17T21:30:40.481Z,87.70
2023-01-17T21:33:43.019Z,87.96
2023-01-17T21:36:46.268Z,87.85
2023-01-17T21:39:54.667Z,87.48
2023-01-17T21:42:57.909Z,86.91
2023-01-17T21:46:04.797Z,86.62
2023-01-17T21:49:11.858Z,86.19
2023-01-17T21:52:17.441Z,86.31
2023-01-17T21:55:39.155Z,87.04
2023-01-17T21:58:44.176Z,87.83
2023-01-17T22:01:47.626Z,85.05
2023-01-17T22:04:50.656Z,84.05
2023-01-17T22:08:12.017Z,85.08
2023-01-17T22:11:17.441Z,86.67
2023-01-17T22:14:20.918Z,86.28
2023-01-17T22:17:23.998Z,86.52
2023-01-17T22:20:26.789Z,87.25
2023-01-17T22:23:30.632Z,86.75
2023-01-17T22:26:33.505Z,87.73
2023-01-17T22:29:37.579Z,87.60
2023-01-17T22:32:40.519Z,86.42
2023-01-17T22:35:43.331Z,85.92
2023-01-17T22:38:46.841Z,84.51
2023-01-17T22:41:49.496Z,87.03
2023-01-17T22:44:52.408Z,87.95
2023-01-17T22:47:55.418Z,87.68
2023-01-17T22:51:02.119Z,87.44
2023-01-17T22:54:05.177Z,87.87
2023-01-17T22:57:08.488Z,88.33
2023-01-17T23:00:14.624Z,88.23
2023-01-17T23:03:17.837Z,86.91
2023-01-17T23:06:40.364Z,87.13
2023-01-17T23:09:43.173Z,86.90
2023-01-17T23:12:46.251Z,87.40
2023-01-17T23:16:07.646Z,87.03
2023-01-17T23:19:22.545Z,87.64
2023-01-17T23:22:27.994Z,87.82
2023-01-17T23:25:30.916Z,87.59
2023-01-17T23:28:33.792Z,87.91
2023-01-17T23:31:36.970Z,87.93
2023-01-17T23:34:39.928Z,88.15
2023-01-17T23:38:01.623Z,88.40
2023-01-17T23:41:27.741Z,87.88
2023-01-17T23:44:32.048Z,87.68
2023-01-17T23:47:34.872Z,87.95
2023-01-17T23:50:40.260Z,87.12
2023-01-17T23:53:43.196Z,86.08
2023-01-17T23:56:46.025Z,86.51
2023-01-17T23:59:48.897Z,86.17
